Inicio METAR Ruta Wind Satelite

Informe Meteorológico

Fecha: 2021/09/21 16:35:26 Local
2021.09.21 21:35 UTC


Operación:VFR
SKPE 212100Z 19008KT 9999 VCSH FEW015TCU BKN080 24/19 Q1015 RETS RMK TCUVCSH E/S A2997 =

SKPE 212000Z 31006KT 9999 TS FEW015CB SCT080 25/19 Q1016 RMK CB S A3000
SKPE 211900Z 32004KT 9999 VCSH SCT015 SCT080 25/19 Q1017 RMK VCSH E/SE A3004
SKPE 211800Z 32004KT 8000 BKN015 25/19 Q1018 RMK HZ A3006
SKPE 211700Z VRB02KT 7000 SCT014 SCT080 24/19 Q1019 RMK HZ A3009
SKPE 211600Z VRB02KT 4000 HZ BKN010 SCT070 21/19 Q1020 REDZ RMK A3012

2021/09/21 18:51
TAF SKPE 211630Z 2118/2218 31006KT 9999 SCT017TCU
TEMPO 2120/2122 8000 TS SCT015CB PROB40
TEMPO 2122/2124 5000 TSRA SCT013CB
BECMG 2200/2202 VRB03KT FEW017 BKN080 PROB40
TEMPO 2204/2208 7000 DZ
TEMPO 2210/2213 7000 VCFG TX25/2119Z TN18/2210Z